AirNav   Everest Fuels
 
 371 users online  

LA29 Byrd Regional Hospital Heliport
Leesville, Louisiana, USA

GOING TO LEESVILLE?


FAA INFORMATION EFFECTIVE 08 SEPTEMBER 2022

Location

FAA Identifier: LA29
Lat/Long: 31-08-15.1900N 093-16-08.9400W
31-08.253167N 093-16.149000W
31.1375528,-93.2691500
(estimated)
Elevation: 250 ft. / 76 m (estimated)
Variation: 05E (1985)
Time zone: UTC -5 (UTC -6 during Standard Time)
Zip code: 71446

Heliport Operations

Heliport use: Private use, MEDICAL.
Activation date: 08/1985
Control tower: no
ARTCC: HOUSTON CENTER
FSS: DE RIDDER FLIGHT SERVICE STATION
Attendance: UNATNDD
Wind indicator: lighted
Segmented circle: no
Lights: SS-SR

Heliport Communications

WX ASOS at POE (7 nm SE): 134.85 (337-531-4100)
WX AWOS-3PT at DRI (19 nm S): 118.225 (337-463-8278)

Nearby radio navigation aids

VOR radial/distance  VOR name  Freq  Var
FXUr299/(3.0)POLK VOR108.4002E

 
NDB name  Hdg/Dist  Freq  Var  ID
DE RIDDER004/23.438504EDXB -.. -..- -...
NATCHITOCHES193/32.740704EOOC --- --- -.-.

Heliport Services

Runway Information

Helipad H1

Dimensions: 36 x 36 ft. / 11 x 11 m
Surface: concrete
Runway edge lights: non-standard
RED AND GREEN OPPOSITE CORNERS LGTS.
Latitude: 31-08.253167N
Longitude: 093-16.149000W
Elevation: 250.0 ft.
Traffic pattern: leftleft

Heliport Ownership and Management from official FAA records

Ownership: Privately-owned
MEDICAL TRANSPORTATION - RSTRD HOSPITAL.
Owner: CLHG-LEESVILLE, LLC
1020 FERTITTA BLVD.
LEESVILLE, LA 71446
Phone 337-239-9041
CONTACT : JOHN BENNETT @ 337-239-5260 FOR ANY AIRPORT INQURIES
Manager: KEVIN QUINN, CEO
1020 FERTITTA BLVD
LEESVILLE, LA 71446
Phone 337-239-9041
CONTACT : JOHN BENNETT @ 337-239-5260 FOR ANY AIRPORT INQURIES

Additional Remarks

FOR CD CTC POLK APCH AT 337-531-2352.

Instrument Procedures

There are no published instrument procedures at LA29.

Some nearby airports with instrument procedures:

L39 - Leesville Airport (4 nm NW)
KPOE - Polk Army Airfield (7 nm SE)
KDRI - Beauregard Regional Airport (19 nm S)
3R4 - Hart Airport (27 nm NW)
KIER - Natchitoches Regional Airport (37 nm N)
 
Loc | Ops | Rwys | IFR | FBO | Links
Com | Nav | Svcs | Stats | Notes
Area around LA29 (Byrd Regional Hospital Heliport)
 
Road maps at: MapQuest Bing Google
 
Aerial photo
No photo
 
Sectional chart

 
Airport distance calculator
Flying to Byrd Regional Hospital Heliport? Find the distance to fly.

From to LA29

Sunrise and sunset
Times for 02-Oct-2022
 Local
(UTC-5)
 Zulu
(UTC)
Morning civil twilight06:4411:44
Sunrise07:0812:08
Sunset18:5723:57
Evening civil twilight19:2100:21

Current date and time
Zulu (UTC)  02-Oct-2022 08:52:03
Local (UTC-5)  02-Oct-2022 03:52:03
 
METAR
KPOE 
15nm E 
020755Z AUTO 02004KT 10SM CLR 14/09 A3007 RMK AO2 SLP183 T01400088
KDRI 
19nm S 
020835Z AUTO 00000KT 10SM CLR 11/08 A3009 RMK AO2 T01090085 $
KBKB 
20nm E 
020752Z AUTO 00000KT 10SM CLR 12/09 A3005 RMK AO2 SLP204 T01220094
TAF
KPOE 
15nm E 
012300Z 0123/0305 VRB06KT 9999 SKC QNH3000INS BECMG 0215/0216 03009KT 9999 SKC QNH3008INS BECMG 0223/0224 VRB06KT 9999 SKC QNH3010INS TX28/0221Z TN12/0211Z LAST NO AMDS AFT 0205 NEXT 0215
NOTAMs
Click for the latest NOTAMs
NOTAMs are issued by the DoD/FAA and will open in a separate window not controlled by AirNav.

 

 
 

Would you like to see your business listed on this page?

 If your business provides an interesting product or service to pilots, flight crews, aircraft, or users of the Byrd Regional Hospital Heliport, you should consider listing it here.  To start the listing process, click on the button below
 
Add a business
 

Other Pages about Byrd Regional Hospital Heliport

Update a link
 
Copyright © AirNav, LLC. All rights reserved. Privacy Policy  Contact